sensor_id;sensor_type;location;lat;lon;timestamp;P1;durP1;ratioP1;P2;durP2;ratioP2
8458;SDS011;4266;48.816;9.154;2023-09-19T00:00:17;1.62;;;1.52;;
8458;SDS011;4266;48.816;9.154;2023-09-19T00:02:45;2.50;;;1.70;;
8458;SDS011;4266;48.816;9.154;2023-09-19T00:05:10;1.87;;;1.63;;
8458;SDS011;4266;48.816;9.154;2023-09-19T00:07:36;3.45;;;1.85;;
8458;SDS011;4266;48.816;9.154;2023-09-19T00:10:02;2.00;;;1.80;;
8458;SDS011;4266;48.816;9.154;2023-09-19T00:12:28;1.73;;;1.60;;
8458;SDS011;4266;48.816;9.154;2023-09-19T00:14:54;1.60;;;1.50;;
8458;SDS011;4266;48.816;9.154;2023-09-19T00:17:20;2.40;;;1.80;;
8458;SDS011;4266;48.816;9.154;2023-09-19T00:19:45;2.80;;;1.73;;
8458;SDS011;4266;48.816;9.154;2023-09-19T00:22:11;2.00;;;1.80;;
8458;SDS011;4266;48.816;9.154;2023-09-19T00:24:37;2.42;;;1.60;;
8458;SDS011;4266;48.816;9.154;2023-09-19T00:27:03;3.03;;;2.00;;
8458;SDS011;4266;48.816;9.154;2023-09-19T00:29:29;1.75;;;1.65;;
8458;SDS011;4266;48.816;9.154;2023-09-19T00:31:55;1.62;;;1.52;;
8458;SDS011;4266;48.816;9.154;2023-09-19T00:34:20;1.83;;;1.70;;
8458;SDS011;4266;48.816;9.154;2023-09-19T00:36:46;1.60;;;1.50;;
8458;SDS011;4266;48.816;9.154;2023-09-19T00:39:12;1.73;;;1.55;;
8458;SDS011;4266;48.816;9.154;2023-09-19T00:41:37;1.80;;;1.70;;
8458;SDS011;4266;48.816;9.154;2023-09-19T00:44:03;1.70;;;1.60;;
8458;SDS011;4266;48.816;9.154;2023-09-19T00:46:30;1.67;;;1.57;;
8458;SDS011;4266;48.816;9.154;2023-09-19T00:48:55;3.15;;;1.50;;
8458;SDS011;4266;48.816;9.154;2023-09-19T00:51:20;2.57;;;1.60;;
8458;SDS011;4266;48.816;9.154;2023-09-19T00:53:47;3.20;;;1.80;;
8458;SDS011;4266;48.816;9.154;2023-09-19T00:56:13;3.17;;;1.60;;
8458;SDS011;4266;48.816;9.154;2023-09-19T00:58:38;2.00;;;1.70;;
8458;SDS011;4266;48.816;9.154;2023-09-19T01:01:04;1.70;;;1.50;;
8458;SDS011;4266;48.816;9.154;2023-09-19T01:03:30;1.70;;;1.60;;
8458;SDS011;4266;48.816;9.154;2023-09-19T01:05:56;1.75;;;1.52;;
8458;SDS011;4266;48.816;9.154;2023-09-19T01:08:22;1.77;;;1.50;;
8458;SDS011;4266;48.816;9.154;2023-09-19T01:10:51;3.10;;;1.73;;
8458;SDS011;4266;48.816;9.154;2023-09-19T01:13:26;1.70;;;1.60;;
8458;SDS011;4266;48.816;9.154;2023-09-19T01:15:50;3.28;;;1.70;;
8458;SDS011;4266;48.816;9.154;2023-09-19T01:18:52;1.67;;;1.57;;
8458;SDS011;4266;48.816;9.154;2023-09-19T01:28:52;1.63;;;1.53;;
8458;SDS011;4266;48.816;9.154;2023-09-19T01:31:17;1.50;;;1.40;;
8458;SDS011;4266;48.816;9.154;2023-09-19T01:33:53;2.12;;;1.55;;
8458;SDS011;4266;48.816;9.154;2023-09-19T01:36:24;2.13;;;1.60;;
8458;SDS011;4266;48.816;9.154;2023-09-19T01:38:50;1.93;;;1.73;;
8458;SDS011;4266;48.816;9.154;2023-09-19T01:41:17;1.70;;;1.60;;
8458;SDS011;4266;48.816;9.154;2023-09-19T01:43:42;3.57;;;1.60;;
8458;SDS011;4266;48.816;9.154;2023-09-19T01:46:09;1.57;;;1.47;;
8458;SDS011;4266;48.816;9.154;2023-09-19T01:48:41;3.17;;;1.50;;
8458;SDS011;4266;48.816;9.154;2023-09-19T01:51:20;3.43;;;1.60;;
8458;SDS011;4266;48.816;9.154;2023-09-19T01:53:55;1.97;;;1.57;;
8458;SDS011;4266;48.816;9.154;2023-09-19T01:56:28;1.80;;;1.70;;
8458;SDS011;4266;48.816;9.154;2023-09-19T01:58:53;1.77;;;1.45;;
8458;SDS011;4266;48.816;9.154;2023-09-19T02:01:19;1.75;;;1.60;;
8458;SDS011;4266;48.816;9.154;2023-09-19T02:03:44;2.10;;;1.50;;
8458;SDS011;4266;48.816;9.154;2023-09-19T02:06:14;1.52;;;1.42;;
8458;SDS011;4266;48.816;9.154;2023-09-19T02:08:40;1.73;;;1.60;;
8458;SDS011;4266;48.816;9.154;2023-09-19T02:11:06;2.93;;;1.70;;
8458;SDS011;4266;48.816;9.154;2023-09-19T02:13:31;1.47;;;1.37;;
8458;SDS011;4266;48.816;9.154;2023-09-19T02:15:57;1.48;;;1.37;;
8458;SDS011;4266;48.816;9.154;2023-09-19T02:18:23;2.07;;;1.50;;
8458;SDS011;4266;48.816;9.154;2023-09-19T02:20:49;3.73;;;1.60;;
8458;SDS011;4266;48.816;9.154;2023-09-19T02:23:15;1.70;;;1.60;;
8458;SDS011;4266;48.816;9.154;2023-09-19T02:25:40;2.73;;;1.50;;
8458;SDS011;4266;48.816;9.154;2023-09-19T02:28:06;1.70;;;1.60;;
8458;SDS011;4266;48.816;9.154;2023-09-19T02:30:32;2.55;;;1.80;;
8458;SDS011;4266;48.816;9.154;2023-09-19T02:32:58;1.40;;;1.30;;
8458;SDS011;4266;48.816;9.154;2023-09-19T02:35:23;1.60;;;1.50;;
8458;SDS011;4266;48.816;9.154;2023-09-19T02:37:49;1.47;;;1.37;;
8458;SDS011;4266;48.816;9.154;2023-09-19T02:40:15;2.43;;;1.40;;
8458;SDS011;4266;48.816;9.154;2023-09-19T02:42:46;1.93;;;1.80;;
8458;SDS011;4266;48.816;9.154;2023-09-19T02:45:11;1.70;;;1.60;;
8458;SDS011;4266;48.816;9.154;2023-09-19T02:47:37;1.70;;;1.60;;
8458;SDS011;4266;48.816;9.154;2023-09-19T02:50:03;3.27;;;1.80;;
8458;SDS011;4266;48.816;9.154;2023-09-19T02:52:29;2.43;;;1.37;;
8458;SDS011;4266;48.816;9.154;2023-09-19T02:54:54;1.70;;;1.60;;
8458;SDS011;4266;48.816;9.154;2023-09-19T02:57:20;2.83;;;1.80;;
8458;SDS011;4266;48.816;9.154;2023-09-19T02:59:46;3.33;;;1.40;;
8458;SDS011;4266;48.816;9.154;2023-09-19T03:02:11;2.60;;;1.70;;
8458;SDS011;4266;48.816;9.154;2023-09-19T03:04:37;1.63;;;1.53;;
8458;SDS011;4266;48.816;9.154;2023-09-19T03:07:03;2.00;;;1.60;;
8458;SDS011;4266;48.816;9.154;2023-09-19T03:09:29;1.60;;;1.50;;
8458;SDS011;4266;48.816;9.154;2023-09-19T03:11:55;1.53;;;1.43;;
8458;SDS011;4266;48.816;9.154;2023-09-19T03:14:21;1.60;;;1.50;;
8458;SDS011;4266;48.816;9.154;2023-09-19T03:16:46;1.77;;;1.40;;
8458;SDS011;4266;48.816;9.154;2023-09-19T03:19:12;1.80;;;1.70;;
8458;SDS011;4266;48.816;9.154;2023-09-19T03:21:38;4.00;;;1.70;;
8458;SDS011;4266;48.816;9.154;2023-09-19T03:24:04;4.03;;;1.57;;
8458;SDS011;4266;48.816;9.154;2023-09-19T03:26:30;1.50;;;1.40;;
8458;SDS011;4266;48.816;9.154;2023-09-19T03:28:55;1.47;;;1.37;;
8458;SDS011;4266;48.816;9.154;2023-09-19T03:31:21;2.33;;;1.53;;
8458;SDS011;4266;48.816;9.154;2023-09-19T03:33:47;2.08;;;1.73;;
8458;SDS011;4266;48.816;9.154;2023-09-19T03:36:13;1.97;;;1.63;;
8458;SDS011;4266;48.816;9.154;2023-09-19T03:38:39;2.05;;;1.85;;
8458;SDS011;4266;48.816;9.154;2023-09-19T03:41:04;2.50;;;1.50;;
8458;SDS011;4266;48.816;9.154;2023-09-19T03:43:31;2.47;;;1.90;;
8458;SDS011;4266;48.816;9.154;2023-09-19T03:45:57;1.83;;;1.73;;
8458;SDS011;4266;48.816;9.154;2023-09-19T03:48:22;2.10;;;1.50;;
8458;SDS011;4266;48.816;9.154;2023-09-19T03:50:48;2.90;;;1.35;;
8458;SDS011;4266;48.816;9.154;2023-09-19T03:53:13;1.97;;;1.70;;
8458;SDS011;4266;48.816;9.154;2023-09-19T03:55:40;1.95;;;1.60;;
8458;SDS011;4266;48.816;9.154;2023-09-19T03:58:06;2.05;;;1.50;;
8458;SDS011;4266;48.816;9.154;2023-09-19T04:00:31;2.13;;;1.90;;
8458;SDS011;4266;48.816;9.154;2023-09-19T04:02:57;1.87;;;1.77;;
8458;SDS011;4266;48.816;9.154;2023-09-19T04:05:23;1.67;;;1.57;;
8458;SDS011;4266;48.816;9.154;2023-09-19T04:07:49;2.73;;;1.77;;
8458;SDS011;4266;48.816;9.154;2023-09-19T04:10:15;3.15;;;1.75;;
8458;SDS011;4266;48.816;9.154;2023-09-19T04:12:41;2.00;;;1.87;;
8458;SDS011;4266;48.816;9.154;2023-09-19T04:15:06;3.15;;;1.98;;
8458;SDS011;4266;48.816;9.154;2023-09-19T04:17:32;2.20;;;1.83;;
8458;SDS011;4266;48.816;9.154;2023-09-19T04:19:58;6.50;;;1.85;;
8458;SDS011;4266;48.816;9.154;2023-09-19T04:22:24;3.40;;;2.00;;
8458;SDS011;4266;48.816;9.154;2023-09-19T04:24:50;2.08;;;1.87;;
8458;SDS011;4266;48.816;9.154;2023-09-19T04:27:15;3.80;;;2.00;;
8458;SDS011;4266;48.816;9.154;2023-09-19T04:29:41;3.45;;;2.20;;
8458;SDS011;4266;48.816;9.154;2023-09-19T04:32:08;1.87;;;1.65;;
8458;SDS011;4266;48.816;9.154;2023-09-19T04:34:33;3.12;;;2.00;;
8458;SDS011;4266;48.816;9.154;2023-09-19T04:37:00;2.23;;;1.83;;
8458;SDS011;4266;48.816;9.154;2023-09-19T04:39:26;4.15;;;2.25;;
8458;SDS011;4266;48.816;9.154;2023-09-19T04:41:51;2.10;;;2.00;;
8458;SDS011;4266;48.816;9.154;2023-09-19T04:44:17;3.43;;;2.00;;
8458;SDS011;4266;48.816;9.154;2023-09-19T04:46:43;2.00;;;1.90;;
8458;SDS011;4266;48.816;9.154;2023-09-19T04:49:08;1.97;;;1.67;;
8458;SDS011;4266;48.816;9.154;2023-09-19T04:51:34;1.97;;;1.87;;
8458;SDS011;4266;48.816;9.154;2023-09-19T04:54:00;2.87;;;1.90;;
8458;SDS011;4266;48.816;9.154;2023-09-19T04:56:25;2.10;;;1.90;;
8458;SDS011;4266;48.816;9.154;2023-09-19T04:58:51;1.70;;;1.60;;
8458;SDS011;4266;48.816;9.154;2023-09-19T05:01:17;3.27;;;1.80;;
8458;SDS011;4266;48.816;9.154;2023-09-19T05:03:43;3.40;;;1.93;;
8458;SDS011;4266;48.816;9.154;2023-09-19T05:06:09;4.22;;;1.90;;
8458;SDS011;4266;48.816;9.154;2023-09-19T05:08:35;1.90;;;1.80;;
8458;SDS011;4266;48.816;9.154;2023-09-19T05:11:02;2.43;;;1.83;;
8458;SDS011;4266;48.816;9.154;2023-09-19T05:13:29;2.93;;;1.97;;
8458;SDS011;4266;48.816;9.154;2023-09-19T05:15:55;3.43;;;1.97;;
8458;SDS011;4266;48.816;9.154;2023-09-19T05:18:20;3.23;;;2.10;;
8458;SDS011;4266;48.816;9.154;2023-09-19T05:20:46;3.37;;;2.40;;
8458;SDS011;4266;48.816;9.154;2023-09-19T05:23:12;2.27;;;2.03;;
8458;SDS011;4266;48.816;9.154;2023-09-19T05:25:38;2.10;;;1.90;;
8458;SDS011;4266;48.816;9.154;2023-09-19T05:28:07;2.33;;;1.83;;
8458;SDS011;4266;48.816;9.154;2023-09-19T05:30:32;7.40;;;2.27;;
8458;SDS011;4266;48.816;9.154;2023-09-19T05:32:58;3.70;;;2.00;;
8458;SDS011;4266;48.816;9.154;2023-09-19T05:35:24;3.53;;;2.10;;
8458;SDS011;4266;48.816;9.154;2023-09-19T05:37:50;4.40;;;2.27;;
8458;SDS011;4266;48.816;9.154;2023-09-19T05:40:17;3.50;;;2.30;;
8458;SDS011;4266;48.816;9.154;2023-09-19T05:42:42;3.80;;;2.03;;
8458;SDS011;4266;48.816;9.154;2023-09-19T05:45:08;2.57;;;2.13;;
8458;SDS011;4266;48.816;9.154;2023-09-19T05:47:35;2.80;;;2.30;;
8458;SDS011;4266;48.816;9.154;2023-09-19T05:50:00;3.90;;;1.90;;
8458;SDS011;4266;48.816;9.154;2023-09-19T05:52:26;4.07;;;2.37;;
8458;SDS011;4266;48.816;9.154;2023-09-19T05:54:52;2.20;;;2.00;;
8458;SDS011;4266;48.816;9.154;2023-09-19T05:57:18;3.10;;;2.13;;
8458;SDS011;4266;48.816;9.154;2023-09-19T05:59:43;4.13;;;2.50;;
8458;SDS011;4266;48.816;9.154;2023-09-19T06:02:09;2.50;;;2.30;;
8458;SDS011;4266;48.816;9.154;2023-09-19T06:04:35;2.83;;;2.40;;
8458;SDS011;4266;48.816;9.154;2023-09-19T06:07:00;3.03;;;2.40;;
8458;SDS011;4266;48.816;9.154;2023-09-19T06:09:26;5.20;;;2.47;;
8458;SDS011;4266;48.816;9.154;2023-09-19T06:11:52;2.33;;;2.10;;
8458;SDS011;4266;48.816;9.154;2023-09-19T06:14:18;2.87;;;2.57;;
8458;SDS011;4266;48.816;9.154;2023-09-19T06:16:44;3.83;;;2.40;;
8458;SDS011;4266;48.816;9.154;2023-09-19T06:19:09;5.80;;;2.80;;
8458;SDS011;4266;48.816;9.154;2023-09-19T06:21:36;4.70;;;2.50;;
8458;SDS011;4266;48.816;9.154;2023-09-19T06:24:02;4.47;;;2.63;;
8458;SDS011;4266;48.816;9.154;2023-09-19T06:26:27;9.53;;;2.57;;
8458;SDS011;4266;48.816;9.154;2023-09-19T06:28:53;2.30;;;2.20;;
8458;SDS011;4266;48.816;9.154;2023-09-19T06:31:19;5.07;;;2.63;;
8458;SDS011;4266;48.816;9.154;2023-09-19T06:33:45;3.43;;;2.50;;
8458;SDS011;4266;48.816;9.154;2023-09-19T06:36:11;3.67;;;2.63;;
8458;SDS011;4266;48.816;9.154;2023-09-19T06:38:37;2.67;;;2.40;;
8458;SDS011;4266;48.816;9.154;2023-09-19T06:41:02;2.80;;;2.60;;
8458;SDS011;4266;48.816;9.154;2023-09-19T06:43:29;3.70;;;2.65;;
8458;SDS011;4266;48.816;9.154;2023-09-19T06:45:55;3.43;;;2.67;;
8458;SDS011;4266;48.816;9.154;2023-09-19T06:48:20;5.03;;;2.70;;
8458;SDS011;4266;48.816;9.154;2023-09-19T06:50:46;4.00;;;2.60;;
8458;SDS011;4266;48.816;9.154;2023-09-19T06:53:12;4.20;;;2.80;;
8458;SDS011;4266;48.816;9.154;2023-09-19T06:55:38;2.75;;;2.45;;
8458;SDS011;4266;48.816;9.154;2023-09-19T06:58:03;7.22;;;2.72;;
8458;SDS011;4266;48.816;9.154;2023-09-19T07:00:29;3.10;;;2.40;;
8458;SDS011;4266;48.816;9.154;2023-09-19T07:02:59;3.17;;;2.30;;
8458;SDS011;4266;48.816;9.154;2023-09-19T07:05:27;2.92;;;2.30;;
8458;SDS011;4266;48.816;9.154;2023-09-19T07:07:53;3.37;;;2.65;;
8458;SDS011;4266;48.816;9.154;2023-09-19T07:10:18;4.55;;;2.72;;
8458;SDS011;4266;48.816;9.154;2023-09-19T07:12:45;3.62;;;2.58;;
8458;SDS011;4266;48.816;9.154;2023-09-19T07:15:11;4.60;;;2.67;;
8458;SDS011;4266;48.816;9.154;2023-09-19T07:17:36;4.10;;;2.70;;
8458;SDS011;4266;48.816;9.154;2023-09-19T07:20:02;5.35;;;2.60;;
8458;SDS011;4266;48.816;9.154;2023-09-19T07:22:28;4.70;;;2.53;;
8458;SDS011;4266;48.816;9.154;2023-09-19T07:24:55;3.47;;;2.55;;
8458;SDS011;4266;48.816;9.154;2023-09-19T07:27:20;6.62;;;2.75;;
8458;SDS011;4266;48.816;9.154;2023-09-19T07:29:46;2.45;;;2.20;;
8458;SDS011;4266;48.816;9.154;2023-09-19T07:32:12;5.97;;;2.45;;
8458;SDS011;4266;48.816;9.154;2023-09-19T07:34:38;5.15;;;2.40;;
8458;SDS011;4266;48.816;9.154;2023-09-19T07:37:03;5.40;;;2.60;;
8458;SDS011;4266;48.816;9.154;2023-09-19T07:39:29;3.75;;;2.50;;
8458;SDS011;4266;48.816;9.154;2023-09-19T07:41:55;4.35;;;2.40;;
8458;SDS011;4266;48.816;9.154;2023-09-19T07:44:21;4.00;;;2.47;;
8458;SDS011;4266;48.816;9.154;2023-09-19T07:46:47;6.35;;;2.60;;
8458;SDS011;4266;48.816;9.154;2023-09-19T07:49:12;2.95;;;2.00;;
8458;SDS011;4266;48.816;9.154;2023-09-19T07:51:38;4.03;;;1.95;;
8458;SDS011;4266;48.816;9.154;2023-09-19T07:54:05;2.87;;;2.35;;
8458;SDS011;4266;48.816;9.154;2023-09-19T07:56:31;3.15;;;2.37;;
8458;SDS011;4266;48.816;9.154;2023-09-19T07:58:57;2.97;;;2.30;;
8458;SDS011;4266;48.816;9.154;2023-09-19T08:01:23;2.25;;;2.05;;
8458;SDS011;4266;48.816;9.154;2023-09-19T08:03:50;6.47;;;3.25;;
8458;SDS011;4266;48.816;9.154;2023-09-19T08:06:16;3.03;;;2.25;;
8458;SDS011;4266;48.816;9.154;2023-09-19T08:08:43;3.60;;;2.40;;
8458;SDS011;4266;48.816;9.154;2023-09-19T08:11:10;2.55;;;2.35;;
8458;SDS011;4266;48.816;9.154;2023-09-19T08:13:36;5.53;;;2.25;;
8458;SDS011;4266;48.816;9.154;2023-09-19T08:16:02;2.65;;;2.10;;
8458;SDS011;4266;48.816;9.154;2023-09-19T08:18:28;3.45;;;2.10;;
8458;SDS011;4266;48.816;9.154;2023-09-19T08:20:54;4.00;;;2.50;;
8458;SDS011;4266;48.816;9.154;2023-09-19T08:23:20;3.85;;;2.25;;
8458;SDS011;4266;48.816;9.154;2023-09-19T08:25:47;2.20;;;2.00;;
8458;SDS011;4266;48.816;9.154;2023-09-19T08:28:16;2.85;;;2.17;;
8458;SDS011;4266;48.816;9.154;2023-09-19T08:30:55;2.20;;;2.00;;
8458;SDS011;4266;48.816;9.154;2023-09-19T08:36:15;1.87;;;1.77;;
8458;SDS011;4266;48.816;9.154;2023-09-19T08:38:40;2.25;;;1.92;;
8458;SDS011;4266;48.816;9.154;2023-09-19T08:41:07;4.40;;;2.08;;
8458;SDS011;4266;48.816;9.154;2023-09-19T08:43:32;2.08;;;1.70;;
8458;SDS011;4266;48.816;9.154;2023-09-19T08:46:03;3.10;;;1.92;;
8458;SDS011;4266;48.816;9.154;2023-09-19T08:48:26;2.28;;;1.92;;
8458;SDS011;4266;48.816;9.154;2023-09-19T08:50:52;3.33;;;2.05;;
8458;SDS011;4266;48.816;9.154;2023-09-19T08:53:31;2.37;;;1.92;;
8458;SDS011;4266;48.816;9.154;2023-09-19T08:56:09;1.87;;;1.77;;
8458;SDS011;4266;48.816;9.154;2023-09-19T08:58:35;4.32;;;1.87;;
8458;SDS011;4266;48.816;9.154;2023-09-19T09:01:00;1.92;;;1.80;;
8458;SDS011;4266;48.816;9.154;2023-09-19T09:03:27;3.25;;;1.95;;
8458;SDS011;4266;48.816;9.154;2023-09-19T09:05:52;5.00;;;1.80;;
8458;SDS011;4266;48.816;9.154;2023-09-19T09:08:19;1.77;;;1.67;;
8458;SDS011;4266;48.816;9.154;2023-09-19T09:10:44;1.73;;;1.62;;
8458;SDS011;4266;48.816;9.154;2023-09-19T09:13:09;1.83;;;1.73;;
8458;SDS011;4266;48.816;9.154;2023-09-19T09:15:36;1.60;;;1.45;;
8458;SDS011;4266;48.816;9.154;2023-09-19T09:18:01;2.35;;;1.70;;
8458;SDS011;4266;48.816;9.154;2023-09-19T09:20:28;3.40;;;1.42;;
8458;SDS011;4266;48.816;9.154;2023-09-19T09:22:55;2.95;;;1.90;;
8458;SDS011;4266;48.816;9.154;2023-09-19T09:25:20;1.92;;;1.80;;
8458;SDS011;4266;48.816;9.154;2023-09-19T09:27:48;2.47;;;2.17;;
8458;SDS011;4266;48.816;9.154;2023-09-19T09:30:32;2.17;;;1.98;;
8458;SDS011;4266;48.816;9.154;2023-09-19T09:32:38;1.83;;;1.67;;
8458;SDS011;4266;48.816;9.154;2023-09-19T09:35:07;2.35;;;2.00;;
8458;SDS011;4266;48.816;9.154;2023-09-19T09:37:30;1.95;;;1.75;;
8458;SDS011;4266;48.816;9.154;2023-09-19T09:39:58;2.70;;;1.98;;
8458;SDS011;4266;48.816;9.154;2023-09-19T09:42:29;4.20;;;2.03;;
8458;SDS011;4266;48.816;9.154;2023-09-19T09:47:41;1.87;;;1.70;;
8458;SDS011;4266;48.816;9.154;2023-09-19T09:50:07;2.95;;;2.00;;
8458;SDS011;4266;48.816;9.154;2023-09-19T09:52:44;2.00;;;1.90;;
8458;SDS011;4266;48.816;9.154;2023-09-19T09:55:00;2.78;;;2.30;;
8458;SDS011;4266;48.816;9.154;2023-09-19T09:57:26;1.98;;;1.80;;
8458;SDS011;4266;48.816;9.154;2023-09-19T09:59:53;1.95;;;1.83;;
8458;SDS011;4266;48.816;9.154;2023-09-19T10:02:20;2.75;;;1.75;;
8458;SDS011;4266;48.816;9.154;2023-09-19T10:04:46;1.85;;;1.70;;
8458;SDS011;4266;48.816;9.154;2023-09-19T10:07:24;1.75;;;1.65;;
8458;SDS011;4266;48.816;9.154;2023-09-19T10:09:50;2.12;;;1.90;;
8458;SDS011;4266;48.816;9.154;2023-09-19T10:12:16;1.90;;;1.80;;
8458;SDS011;4266;48.816;9.154;2023-09-19T10:14:45;3.62;;;2.03;;
8458;SDS011;4266;48.816;9.154;2023-09-19T10:17:10;1.70;;;1.60;;
8458;SDS011;4266;48.816;9.154;2023-09-19T10:19:37;3.87;;;2.40;;
8458;SDS011;4266;48.816;9.154;2023-09-19T10:22:02;2.05;;;1.90;;
8458;SDS011;4266;48.816;9.154;2023-09-19T10:24:28;2.12;;;2.03;;
8458;SDS011;4266;48.816;9.154;2023-09-19T10:26:54;4.37;;;2.35;;
8458;SDS011;4266;48.816;9.154;2023-09-19T10:29:19;2.17;;;2.05;;
8458;SDS011;4266;48.816;9.154;2023-09-19T10:31:47;2.08;;;1.95;;
8458;SDS011;4266;48.816;9.154;2023-09-19T10:34:11;2.92;;;2.30;;
8458;SDS011;4266;48.816;9.154;2023-09-19T10:36:36;2.00;;;1.90;;
8458;SDS011;4266;48.816;9.154;2023-09-19T10:39:02;1.87;;;1.77;;
8458;SDS011;4266;48.816;9.154;2023-09-19T10:41:30;2.05;;;1.90;;
8458;SDS011;4266;48.816;9.154;2023-09-19T10:43:56;1.80;;;1.70;;
8458;SDS011;4266;48.816;9.154;2023-09-19T10:46:22;2.47;;;1.87;;
8458;SDS011;4266;48.816;9.154;2023-09-19T10:48:48;1.80;;;1.70;;
8458;SDS011;4266;48.816;9.154;2023-09-19T10:51:16;2.33;;;1.80;;
8458;SDS011;4266;48.816;9.154;2023-09-19T10:53:44;1.85;;;1.60;;
8458;SDS011;4266;48.816;9.154;2023-09-19T10:56:10;1.60;;;1.50;;
8458;SDS011;4266;48.816;9.154;2023-09-19T10:58:35;3.55;;;2.12;;
8458;SDS011;4266;48.816;9.154;2023-09-19T11:01:01;1.55;;;1.50;;
8458;SDS011;4266;48.816;9.154;2023-09-19T11:03:28;3.08;;;1.70;;
8458;SDS011;4266;48.816;9.154;2023-09-19T11:06:02;1.70;;;1.60;;
8458;SDS011;4266;48.816;9.154;2023-09-19T11:11:52;1.75;;;1.65;;
8458;SDS011;4266;48.816;9.154;2023-09-19T11:17:23;1.87;;;1.75;;
8458;SDS011;4266;48.816;9.154;2023-09-19T11:22:06;2.08;;;1.80;;
8458;SDS011;4266;48.816;9.154;2023-09-19T11:24:32;3.45;;;1.95;;
8458;SDS011;4266;48.816;9.154;2023-09-19T11:29:34;2.20;;;1.90;;
8458;SDS011;4266;48.816;9.154;2023-09-19T11:32:00;3.85;;;2.05;;
8458;SDS011;4266;48.816;9.154;2023-09-19T11:37:59;1.80;;;1.70;;
8458;SDS011;4266;48.816;9.154;2023-09-19T11:42:47;3.28;;;1.58;;
8458;SDS011;4266;48.816;9.154;2023-09-19T11:47:51;2.10;;;1.90;;
8458;SDS011;4266;48.816;9.154;2023-09-19T11:50:18;2.03;;;1.83;;
8458;SDS011;4266;48.816;9.154;2023-09-19T11:52:42;1.58;;;1.45;;
8458;SDS011;4266;48.816;9.154;2023-09-19T11:55:08;1.50;;;1.40;;
8458;SDS011;4266;48.816;9.154;2023-09-19T11:57:34;1.80;;;1.70;;
8458;SDS011;4266;48.816;9.154;2023-09-19T11:59:59;1.92;;;1.75;;
8458;SDS011;4266;48.816;9.154;2023-09-19T12:02:31;1.95;;;1.70;;
8458;SDS011;4266;48.816;9.154;2023-09-19T12:04:53;3.72;;;1.70;;
8458;SDS011;4266;48.816;9.154;2023-09-19T12:07:19;1.70;;;1.58;;
8458;SDS011;4266;48.816;9.154;2023-09-19T12:09:45;1.90;;;1.80;;
8458;SDS011;4266;48.816;9.154;2023-09-19T12:12:11;2.58;;;1.98;;
8458;SDS011;4266;48.816;9.154;2023-09-19T12:14:38;2.20;;;2.10;;
8458;SDS011;4266;48.816;9.154;2023-09-19T12:17:03;3.37;;;2.00;;
8458;SDS011;4266;48.816;9.154;2023-09-19T12:19:29;2.87;;;1.80;;
8458;SDS011;4266;48.816;9.154;2023-09-19T12:21:55;2.00;;;1.80;;
8458;SDS011;4266;48.816;9.154;2023-09-19T12:24:20;2.70;;;2.20;;
8458;SDS011;4266;48.816;9.154;2023-09-19T12:26:46;2.55;;;1.87;;
8458;SDS011;4266;48.816;9.154;2023-09-19T12:29:15;2.25;;;2.05;;
8458;SDS011;4266;48.816;9.154;2023-09-19T12:34:20;7.07;;;2.17;;
8458;SDS011;4266;48.816;9.154;2023-09-19T12:36:45;3.42;;;1.90;;
8458;SDS011;4266;48.816;9.154;2023-09-19T12:39:11;2.33;;;2.10;;
8458;SDS011;4266;48.816;9.154;2023-09-19T12:41:37;4.25;;;2.12;;
8458;SDS011;4266;48.816;9.154;2023-09-19T12:44:03;2.90;;;1.95;;
8458;SDS011;4266;48.816;9.154;2023-09-19T12:46:30;3.30;;;1.50;;
8458;SDS011;4266;48.816;9.154;2023-09-19T12:49:17;2.37;;;1.60;;
8458;SDS011;4266;48.816;9.154;2023-09-19T12:51:43;2.22;;;1.90;;
8458;SDS011;4266;48.816;9.154;2023-09-19T12:54:09;1.90;;;1.70;;
8458;SDS011;4266;48.816;9.154;2023-09-19T12:56:40;1.55;;;1.45;;
8458;SDS011;4266;48.816;9.154;2023-09-19T12:59:06;3.42;;;1.92;;
8458;SDS011;4266;48.816;9.154;2023-09-19T13:01:32;3.47;;;1.65;;
8458;SDS011;4266;48.816;9.154;2023-09-19T13:06:36;1.90;;;1.80;;
8458;SDS011;4266;48.816;9.154;2023-09-19T13:09:08;5.85;;;1.95;;
8458;SDS011;4266;48.816;9.154;2023-09-19T13:11:35;2.17;;;1.95;;
8458;SDS011;4266;48.816;9.154;2023-09-19T13:19:34;2.00;;;1.62;;
8458;SDS011;4266;48.816;9.154;2023-09-19T13:21:42;2.95;;;1.70;;
8458;SDS011;4266;48.816;9.154;2023-09-19T13:26:44;2.45;;;2.25;;
8458;SDS011;4266;48.816;9.154;2023-09-19T13:29:11;2.53;;;1.77;;
8458;SDS011;4266;48.816;9.154;2023-09-19T13:31:36;2.05;;;1.83;;
8458;SDS011;4266;48.816;9.154;2023-09-19T13:34:02;2.20;;;1.70;;
8458;SDS011;4266;48.816;9.154;2023-09-19T13:36:28;4.35;;;1.95;;
8458;SDS011;4266;48.816;9.154;2023-09-19T13:38:53;2.28;;;1.87;;
8458;SDS011;4266;48.816;9.154;2023-09-19T13:41:20;2.83;;;1.80;;
8458;SDS011;4266;48.816;9.154;2023-09-19T13:43:45;3.22;;;2.00;;
8458;SDS011;4266;48.816;9.154;2023-09-19T13:46:12;2.42;;;1.62;;
8458;SDS011;4266;48.816;9.154;2023-09-19T13:48:38;4.53;;;2.20;;
8458;SDS011;4266;48.816;9.154;2023-09-19T13:51:05;2.05;;;1.95;;
8458;SDS011;4266;48.816;9.154;2023-09-19T13:53:30;4.25;;;2.00;;
8458;SDS011;4266;48.816;9.154;2023-09-19T13:55:56;3.70;;;2.05;;
8458;SDS011;4266;48.816;9.154;2023-09-19T13:58:23;1.90;;;1.70;;
8458;SDS011;4266;48.816;9.154;2023-09-19T14:00:48;2.05;;;1.87;;
8458;SDS011;4266;48.816;9.154;2023-09-19T14:03:15;2.10;;;1.95;;
8458;SDS011;4266;48.816;9.154;2023-09-19T14:05:40;2.33;;;1.80;;
8458;SDS011;4266;48.816;9.154;2023-09-19T14:08:06;2.10;;;1.87;;
8458;SDS011;4266;48.816;9.154;2023-09-19T14:10:32;3.62;;;2.22;;
8458;SDS011;4266;48.816;9.154;2023-09-19T14:12:57;2.03;;;1.80;;
8458;SDS011;4266;48.816;9.154;2023-09-19T14:15:24;2.58;;;1.73;;
8458;SDS011;4266;48.816;9.154;2023-09-19T14:17:50;3.17;;;2.00;;
8458;SDS011;4266;48.816;9.154;2023-09-19T14:20:16;4.72;;;2.15;;
8458;SDS011;4266;48.816;9.154;2023-09-19T14:22:41;3.35;;;2.10;;
8458;SDS011;4266;48.816;9.154;2023-09-19T14:25:07;2.12;;;1.92;;
8458;SDS011;4266;48.816;9.154;2023-09-19T14:27:33;2.10;;;2.00;;
8458;SDS011;4266;48.816;9.154;2023-09-19T14:29:59;2.50;;;2.30;;
8458;SDS011;4266;48.816;9.154;2023-09-19T14:32:24;2.83;;;1.92;;
8458;SDS011;4266;48.816;9.154;2023-09-19T14:34:51;1.90;;;1.80;;
8458;SDS011;4266;48.816;9.154;2023-09-19T14:37:17;2.08;;;1.90;;
8458;SDS011;4266;48.816;9.154;2023-09-19T14:39:43;5.60;;;2.00;;
8458;SDS011;4266;48.816;9.154;2023-09-19T14:42:09;2.30;;;2.10;;
8458;SDS011;4266;48.816;9.154;2023-09-19T14:44:35;4.28;;;1.92;;
8458;SDS011;4266;48.816;9.154;2023-09-19T14:47:01;4.78;;;2.15;;
8458;SDS011;4266;48.816;9.154;2023-09-19T14:49:27;3.70;;;1.73;;
8458;SDS011;4266;48.816;9.154;2023-09-19T14:51:54;2.65;;;1.80;;
8458;SDS011;4266;48.816;9.154;2023-09-19T14:54:20;2.87;;;1.87;;
8458;SDS011;4266;48.816;9.154;2023-09-19T14:56:46;1.83;;;1.73;;
8458;SDS011;4266;48.816;9.154;2023-09-19T14:59:12;2.10;;;1.95;;
8458;SDS011;4266;48.816;9.154;2023-09-19T15:01:37;2.15;;;1.83;;
8458;SDS011;4266;48.816;9.154;2023-09-19T15:04:03;2.87;;;1.77;;
8458;SDS011;4266;48.816;9.154;2023-09-19T15:06:30;3.40;;;2.10;;
8458;SDS011;4266;48.816;9.154;2023-09-19T15:08:55;3.58;;;2.10;;
8458;SDS011;4266;48.816;9.154;2023-09-19T15:11:21;1.80;;;1.70;;
8458;SDS011;4266;48.816;9.154;2023-09-19T15:13:48;2.58;;;1.70;;
8458;SDS011;4266;48.816;9.154;2023-09-19T15:16:13;2.17;;;1.60;;
8458;SDS011;4266;48.816;9.154;2023-09-19T15:18:41;1.92;;;1.83;;
8458;SDS011;4266;48.816;9.154;2023-09-19T15:21:06;1.50;;;1.40;;
8458;SDS011;4266;48.816;9.154;2023-09-19T15:23:32;2.83;;;1.50;;
8458;SDS011;4266;48.816;9.154;2023-09-19T15:25:58;1.52;;;1.42;;
8458;SDS011;4266;48.816;9.154;2023-09-19T15:28:24;1.80;;;1.70;;
8458;SDS011;4266;48.816;9.154;2023-09-19T15:30:50;1.77;;;1.65;;
8458;SDS011;4266;48.816;9.154;2023-09-19T15:33:16;2.33;;;1.80;;
8458;SDS011;4266;48.816;9.154;2023-09-19T15:35:41;2.40;;;1.77;;
8458;SDS011;4266;48.816;9.154;2023-09-19T15:38:07;1.70;;;1.60;;
8458;SDS011;4266;48.816;9.154;2023-09-19T15:40:33;1.48;;;1.40;;
8458;SDS011;4266;48.816;9.154;2023-09-19T15:42:59;5.05;;;1.95;;
8458;SDS011;4266;48.816;9.154;2023-09-19T15:45:25;2.53;;;1.55;;
8458;SDS011;4266;48.816;9.154;2023-09-19T15:47:52;1.70;;;1.60;;
8458;SDS011;4266;48.816;9.154;2023-09-19T15:50:17;1.70;;;1.60;;
8458;SDS011;4266;48.816;9.154;2023-09-19T15:52:44;4.50;;;1.70;;
8458;SDS011;4266;48.816;9.154;2023-09-19T15:55:10;1.75;;;1.65;;